SBBR/BSB METAR and TAF weather

Enter ICAO airport designator
Station Type Date Time Source
SBBR METAR 2022/01/29 12:00 UTC NOAA

SBBR 291200Z 35009KT 320V040 CAVOK 23/15 Q1017


Station Type Date Time Source
SBBR Decoded METAR 2022/01/29 12:00 UTC NOAA

Brasilia Aeroporto , Brazil (SBBR) 15-52S 047-56W 1061M
Jan 29, 2022 - 07:00 AM EST / 2022.01.29 1200 UTC
Wind: from the N (350 degrees) at 10 MPH (9 KT) (direction variable):0
Visibility: greater than 7 mile(s):0
Temperature: 73 F (23 C)
Dew Point: 59 F (15 C)
Relative Humidity: 60%
Pressure (altimeter): 30.03 in. Hg (1017 hPa)
ob: SBBR 291200Z 35009KT 320V040 CAVOK 23/15 Q1017
cycle: 12

Station Type Date Time Source
SBBR TAF 2022/01/29 12:47 UTC NOAA

TAF SBBR 290920Z 2912/3012 01007KT 8000 SCT025 TX27/2917Z TN18/3009Z
BECMG 2915/2917 01010KT BKN025
TEMPO 2918/2921 TSRA SCT025 FEW040CB
BECMG 2921/2923 35004KT SCT025
BECMG 3000/3002 FEW025
BECMG 3006/3008 35002KT
RMK PGM

Example: see airport list